createdAt,value
2024-04-13T00:01:57.030Z,12.70
2024-04-13T00:04:24.880Z,12.60
2024-04-13T00:06:52.036Z,12.60
2024-04-13T00:09:19.425Z,12.50
2024-04-13T00:11:46.183Z,12.50
2024-04-13T00:14:16.215Z,12.40
2024-04-13T00:16:42.957Z,12.30
2024-04-13T00:19:12.435Z,12.30
2024-04-13T00:21:43.255Z,12.20
2024-04-13T00:24:12.332Z,12.20
2024-04-13T00:26:39.066Z,12.20
2024-04-13T00:29:08.504Z,12.30
2024-04-13T00:31:35.339Z,12.20
2024-04-13T00:34:05.576Z,12.10
2024-04-13T00:36:36.718Z,12.10
2024-04-13T00:39:06.080Z,12.10
2024-04-13T00:41:33.351Z,12.10
2024-04-13T00:44:01.327Z,12.10
2024-04-13T00:46:33.150Z,12.10
2024-04-13T00:49:01.008Z,12.20
2024-04-13T00:51:30.451Z,12.20
2024-04-13T00:53:57.650Z,12.10
2024-04-13T00:56:24.688Z,12.20
2024-04-13T00:58:52.204Z,12.10
2024-04-13T01:01:20.771Z,12.00
2024-04-13T01:03:48.260Z,12.00
2024-04-13T01:06:16.387Z,12.00
2024-04-13T01:08:43.175Z,12.00
2024-04-13T01:11:10.312Z,12.00
2024-04-13T01:13:41.829Z,12.00
2024-04-13T01:16:08.608Z,11.90
2024-04-13T01:18:35.420Z,11.90
2024-04-13T01:21:02.268Z,11.80
2024-04-13T01:23:31.329Z,11.80
2024-04-13T01:25:59.087Z,11.90
2024-04-13T01:28:27.786Z,11.80
2024-04-13T01:30:55.558Z,11.80
2024-04-13T01:33:22.303Z,11.80
2024-04-13T01:35:49.571Z,11.80
2024-04-13T01:38:16.406Z,11.80
2024-04-13T01:40:43.138Z,11.80
2024-04-13T01:43:09.864Z,11.70
2024-04-13T01:45:36.672Z,11.70
2024-04-13T01:48:03.733Z,11.70
2024-04-13T01:50:30.500Z,11.70
2024-04-13T01:52:57.258Z,11.70
2024-04-13T01:55:23.966Z,11.70
2024-04-13T01:57:50.700Z,11.60
2024-04-13T02:00:17.507Z,11.70
2024-04-13T02:02:44.287Z,11.70
2024-04-13T02:05:11.110Z,11.70
2024-04-13T02:07:37.869Z,11.60
2024-04-13T02:10:04.760Z,11.60
2024-04-13T02:12:31.612Z,11.70
2024-04-13T02:14:58.376Z,11.60
2024-04-13T02:17:25.611Z,11.60
2024-04-13T02:19:52.337Z,11.60
2024-04-13T02:22:19.927Z,11.50
2024-04-13T02:24:47.619Z,11.50
2024-04-13T02:27:14.377Z,11.50
2024-04-13T02:29:44.540Z,11.50
2024-04-13T02:32:11.345Z,11.30
2024-04-13T02:34:41.309Z,11.30
2024-04-13T02:37:08.323Z,11.30
2024-04-13T02:39:35.151Z,11.20
2024-04-13T02:42:02.012Z,11.30
2024-04-13T02:44:28.762Z,11.20
2024-04-13T02:46:55.501Z,11.20
2024-04-13T02:49:22.463Z,11.20
2024-04-13T02:51:49.273Z,11.30
2024-04-13T02:54:16.059Z,11.20
2024-04-13T02:56:42.801Z,11.20
2024-04-13T02:59:09.540Z,11.20
2024-04-13T03:01:36.348Z,11.20
2024-04-13T03:04:03.238Z,11.20
2024-04-13T03:06:30.105Z,11.20
2024-04-13T03:08:56.837Z,11.10
2024-04-13T03:11:23.634Z,11.10
2024-04-13T03:13:50.640Z,11.30
2024-04-13T03:16:18.198Z,11.20
2024-04-13T03:18:45.599Z,11.10
2024-04-13T03:21:12.776Z,11.00
2024-04-13T03:23:41.643Z,11.00
2024-04-13T03:26:09.682Z,11.00
2024-04-13T03:28:36.508Z,10.90
2024-04-13T03:31:04.570Z,10.90
2024-04-13T03:33:31.490Z,11.00
2024-04-13T03:36:08.077Z,11.00
2024-04-13T03:38:34.958Z,11.00
2024-04-13T03:41:07.169Z,11.00
2024-04-13T03:43:36.071Z,10.90
2024-04-13T03:46:04.324Z,10.90
2024-04-13T03:48:31.494Z,10.90
2024-04-13T03:51:01.421Z,10.90
2024-04-13T03:53:28.155Z,10.70
2024-04-13T03:55:55.063Z,10.70
2024-04-13T03:58:21.775Z,10.70
2024-04-13T04:00:49.580Z,10.70
2024-04-13T04:03:16.471Z,10.70
2024-04-13T04:05:43.182Z,10.70
2024-04-13T04:08:09.907Z,10.60
2024-04-13T04:10:36.636Z,10.60
2024-04-13T04:13:03.590Z,10.60
2024-04-13T04:15:30.557Z,10.60
2024-04-13T04:17:57.744Z,10.70
2024-04-13T04:20:24.815Z,10.60
2024-04-13T04:22:52.111Z,10.60
2024-04-13T04:25:22.731Z,10.60
2024-04-13T04:27:49.828Z,10.50
2024-04-13T04:30:16.898Z,10.50
2024-04-13T04:32:46.651Z,10.50
2024-04-13T04:35:14.019Z,10.50
2024-04-13T04:37:40.855Z,10.50
2024-04-13T04:40:09.679Z,10.50
2024-04-13T04:42:37.285Z,10.50
2024-04-13T04:45:06.896Z,10.50
2024-04-13T04:47:36.690Z,10.50
2024-04-13T04:50:05.138Z,10.50
2024-04-13T04:52:32.235Z,10.40
2024-04-13T04:55:02.543Z,10.40
2024-04-13T04:57:29.766Z,10.40
2024-04-13T04:59:56.935Z,10.50
2024-04-13T05:02:24.107Z,10.50
2024-04-13T05:04:51.014Z,10.60
2024-04-13T05:07:17.828Z,10.50
2024-04-13T05:09:44.607Z,10.50
2024-04-13T05:12:12.819Z,10.60
2024-04-13T05:14:39.789Z,10.70
2024-04-13T05:17:06.836Z,10.60
2024-04-13T05:19:33.639Z,10.70
2024-04-13T05:22:05.895Z,10.80
2024-04-13T05:24:33.669Z,10.90
2024-04-13T05:27:07.019Z,11.00
2024-04-13T05:29:35.776Z,11.00
2024-04-13T05:32:03.951Z,11.20
2024-04-13T05:34:30.698Z,11.10
2024-04-13T05:36:57.468Z,11.10
2024-04-13T05:39:24.331Z,11.20
2024-04-13T05:41:51.151Z,11.30
2024-04-13T05:44:18.140Z,11.40
2024-04-13T05:46:45.059Z,11.40
2024-04-13T05:49:11.845Z,11.40
2024-04-13T05:51:38.651Z,11.50
2024-04-13T05:54:05.453Z,11.50
2024-04-13T05:56:32.226Z,11.40
2024-04-13T05:58:59.395Z,11.60
2024-04-13T06:01:27.253Z,11.60
2024-04-13T06:03:54.329Z,11.90
2024-04-13T06:06:21.114Z,11.90
2024-04-13T06:08:47.832Z,11.90
2024-04-13T06:11:15.009Z,11.90
2024-04-13T06:13:42.558Z,11.90
2024-04-13T06:16:09.483Z,11.90
2024-04-13T06:18:36.309Z,12.00
2024-04-13T06:21:03.592Z,12.10
2024-04-13T06:23:30.397Z,12.10
2024-04-13T06:25:57.856Z,12.20
2024-04-13T06:28:24.750Z,12.30
2024-04-13T06:30:52.809Z,12.40
2024-04-13T06:33:19.985Z,12.40
2024-04-13T06:35:50.964Z,12.60
2024-04-13T06:38:25.605Z,12.70
2024-04-13T06:40:52.940Z,12.80
2024-04-13T06:43:20.599Z,12.90
2024-04-13T06:45:48.202Z,13.00
2024-04-13T06:48:18.083Z,13.10
2024-04-13T06:50:45.368Z,13.20
2024-04-13T06:53:12.153Z,13.20
2024-04-13T06:55:38.957Z,13.40
2024-04-13T06:58:05.789Z,13.50
2024-04-13T07:00:32.606Z,13.70
2024-04-13T07:02:59.534Z,13.70
2024-04-13T07:05:26.401Z,13.90
2024-04-13T07:07:53.108Z,14.00
2024-04-13T07:10:19.821Z,14.20
2024-04-13T07:12:47.003Z,14.30
2024-04-13T07:15:14.423Z,14.40
2024-04-13T07:17:41.212Z,14.50
2024-04-13T07:20:08.597Z,14.60
2024-04-13T07:22:35.398Z,14.60
2024-04-13T07:25:02.125Z,14.80
2024-04-13T07:27:28.856Z,14.90
2024-04-13T07:29:55.554Z,15.00
2024-04-13T07:32:22.344Z,15.10
2024-04-13T07:34:49.115Z,15.30
2024-04-13T07:37:15.815Z,15.40
2024-04-13T07:39:42.662Z,15.50
2024-04-13T07:42:10.192Z,15.60
2024-04-13T07:44:37.701Z,15.80
2024-04-13T07:47:05.520Z,15.80
2024-04-13T07:49:32.244Z,16.00
2024-04-13T07:52:01.195Z,15.90
2024-04-13T07:54:27.982Z,15.90
2024-04-13T07:56:54.678Z,16.10
2024-04-13T07:59:21.375Z,16.20
2024-04-13T08:01:48.073Z,16.40
2024-04-13T08:04:14.926Z,16.60
2024-04-13T08:06:41.831Z,16.70
2024-04-13T08:09:08.585Z,16.70
2024-04-13T08:11:35.335Z,16.80
2024-04-13T08:14:02.107Z,17.00
2024-04-13T08:16:28.930Z,17.00
2024-04-13T08:18:55.694Z,17.00
2024-04-13T08:21:22.474Z,17.10
2024-04-13T08:23:49.187Z,17.40
2024-04-13T08:26:15.984Z,17.40
2024-04-13T08:28:42.816Z,17.50
2024-04-13T08:31:09.670Z,17.60
2024-04-13T08:33:36.826Z,17.70
2024-04-13T08:36:07.644Z,17.80
2024-04-13T08:38:34.414Z,17.80
2024-04-13T08:41:07.783Z,17.90
2024-04-13T08:43:34.843Z,17.80
2024-04-13T08:46:08.944Z,17.90
2024-04-13T08:48:40.030Z,18.00
2024-04-13T08:51:11.302Z,18.20
2024-04-13T08:53:43.659Z,18.10
2024-04-13T08:56:12.535Z,18.30
2024-04-13T08:58:40.215Z,18.40
2024-04-13T09:01:10.251Z,18.50
2024-04-13T09:03:37.406Z,18.60
2024-04-13T09:06:04.592Z,18.60
2024-04-13T09:08:33.920Z,18.80
2024-04-13T09:11:04.832Z,18.90
2024-04-13T09:13:32.329Z,19.00
2024-04-13T09:16:00.266Z,19.20
2024-04-13T09:18:27.171Z,19.30
2024-04-13T09:20:55.869Z,19.40
2024-04-13T09:23:22.658Z,19.40
2024-04-13T09:25:49.347Z,19.50
2024-04-13T09:28:16.153Z,19.60
2024-04-13T09:30:42.935Z,19.60
2024-04-13T09:33:09.855Z,19.60
2024-04-13T09:35:37.031Z,19.80
2024-04-13T09:38:04.485Z,20.00
2024-04-13T09:40:32.003Z,19.80
2024-04-13T09:43:02.403Z,19.90
2024-04-13T09:45:29.293Z,20.00
2024-04-13T09:47:58.833Z,20.20
2024-04-13T09:50:27.578Z,20.20
2024-04-13T09:52:54.888Z,20.10
2024-04-13T09:55:22.696Z,20.10
2024-04-13T09:57:51.792Z,20.30
2024-04-13T10:00:18.717Z,20.50
2024-04-13T10:02:46.461Z,20.50
2024-04-13T10:05:13.380Z,20.50
2024-04-13T10:07:40.394Z,20.40
2024-04-13T10:10:14.627Z,20.50
2024-04-13T10:12:44.725Z,20.60
2024-04-13T10:15:12.201Z,20.50
2024-04-13T10:17:42.006Z,20.70
2024-04-13T10:20:09.304Z,20.80
2024-04-13T10:22:38.801Z,20.90
2024-04-13T10:25:08.499Z,20.80
2024-04-13T10:27:36.328Z,21.00
2024-04-13T10:30:04.459Z,21.30
2024-04-13T10:32:31.752Z,21.30
2024-04-13T10:35:12.560Z,21.20
2024-04-13T10:37:39.341Z,20.90
2024-04-13T10:40:09.262Z,21.00
2024-04-13T10:42:44.165Z,21.20
2024-04-13T10:45:18.849Z,21.40
2024-04-13T10:47:47.041Z,21.60
2024-04-13T10:50:15.375Z,21.60
2024-04-13T10:52:43.249Z,21.80
2024-04-13T10:55:15.567Z,21.90
2024-04-13T10:57:45.264Z,22.00
2024-04-13T11:00:12.524Z,21.50
2024-04-13T11:02:42.579Z,21.60
2024-04-13T11:05:17.760Z,21.70
2024-04-13T11:07:44.972Z,21.90
2024-04-13T11:10:11.878Z,22.00
2024-04-13T11:12:38.642Z,22.10
2024-04-13T11:15:06.213Z,22.10
2024-04-13T11:17:33.136Z,22.20
2024-04-13T11:20:00.209Z,22.00
2024-04-13T11:22:28.251Z,21.90
2024-04-13T11:24:57.939Z,22.00
2024-04-13T11:27:25.054Z,22.10
2024-04-13T11:29:52.219Z,22.30
2024-04-13T11:32:19.570Z,22.50
2024-04-13T11:34:46.461Z,22.50
2024-04-13T11:37:16.273Z,22.50
2024-04-13T11:39:46.978Z,22.50
2024-04-13T11:42:14.389Z,22.60
2024-04-13T11:44:41.952Z,22.50
2024-04-13T11:47:10.061Z,22.40
2024-04-13T11:49:41.557Z,22.50
2024-04-13T11:52:13.435Z,22.80
2024-04-13T11:54:42.010Z,23.10
2024-04-13T11:57:12.443Z,23.20
2024-04-13T11:59:39.754Z,23.20
2024-04-13T12:02:06.708Z,22.90
2024-04-13T12:04:33.738Z,23.10
2024-04-13T12:07:01.030Z,23.10
2024-04-13T12:09:27.991Z,23.40
2024-04-13T12:11:56.520Z,23.60
2024-04-13T12:14:24.781Z,23.70
2024-04-13T12:16:51.535Z,23.50
2024-04-13T12:19:18.364Z,23.60
2024-04-13T12:21:45.374Z,23.70
2024-04-13T12:24:12.224Z,23.70
2024-04-13T12:26:39.142Z,24.00
2024-04-13T12:29:06.460Z,24.00
2024-04-13T12:31:33.146Z,23.90
2024-04-13T12:33:59.943Z,24.00
2024-04-13T12:36:27.477Z,24.10
2024-04-13T12:38:55.554Z,23.90
2024-04-13T12:41:22.528Z,24.10
2024-04-13T12:43:49.271Z,24.10
2024-04-13T12:46:16.064Z,24.20
2024-04-13T12:48:42.915Z,24.60
2024-04-13T12:51:09.682Z,24.60
2024-04-13T12:53:36.886Z,24.50
2024-04-13T12:56:03.793Z,24.30
2024-04-13T12:58:30.485Z,24.70
2024-04-13T13:00:57.239Z,24.80
2024-04-13T13:03:24.028Z,25.00
2024-04-13T13:05:50.831Z,25.20
2024-04-13T13:08:17.531Z,25.20
2024-04-13T13:10:44.268Z,24.80
2024-04-13T13:13:10.985Z,24.50
2024-04-13T13:15:37.733Z,24.60
2024-04-13T13:18:04.687Z,24.90
2024-04-13T13:20:31.503Z,25.40
2024-04-13T13:22:58.989Z,25.60
2024-04-13T13:25:25.800Z,25.80
2024-04-13T13:27:52.623Z,25.90
2024-04-13T13:30:19.569Z,25.70
2024-04-13T13:32:46.772Z,25.60
2024-04-13T13:35:14.053Z,25.80
2024-04-13T13:37:40.777Z,25.90
2024-04-13T13:40:07.964Z,26.10
2024-04-13T13:42:34.746Z,25.70
2024-04-13T13:45:01.468Z,25.50
2024-04-13T13:47:28.198Z,25.80
2024-04-13T13:49:54.922Z,25.90
2024-04-13T13:52:21.601Z,26.20
2024-04-13T13:54:48.374Z,26.10
2024-04-13T13:57:15.115Z,26.30
2024-04-13T13:59:41.841Z,25.70
2024-04-13T14:02:08.615Z,25.90
2024-04-13T14:04:35.337Z,26.20
2024-04-13T14:07:02.130Z,26.40
2024-04-13T14:09:29.321Z,26.30
2024-04-13T14:11:56.040Z,26.50
2024-04-13T14:14:22.911Z,26.30
2024-04-13T14:16:50.693Z,26.30
2024-04-13T14:19:17.895Z,26.30
2024-04-13T14:21:44.654Z,26.40
2024-04-13T14:24:11.425Z,26.70
2024-04-13T14:26:38.134Z,26.60
2024-04-13T14:29:06.286Z,26.70
2024-04-13T14:31:33.041Z,26.40
2024-04-13T14:33:59.836Z,26.00
2024-04-13T14:36:26.633Z,26.30
2024-04-13T14:38:53.344Z,26.00
2024-04-13T14:41:20.414Z,25.80
2024-04-13T14:43:48.752Z,25.80
2024-04-13T14:46:15.454Z,25.70
2024-04-13T14:48:42.298Z,25.70
2024-04-13T14:51:09.151Z,25.90
2024-04-13T14:53:37.018Z,26.50
2024-04-13T14:56:03.921Z,26.90
2024-04-13T14:58:30.633Z,26.70
2024-04-13T15:01:04.820Z,27.00
2024-04-13T15:03:31.651Z,27.00
2024-04-13T15:05:58.489Z,26.90
2024-04-13T15:08:25.546Z,26.90
2024-04-13T15:10:52.435Z,26.70
2024-04-13T15:13:19.206Z,26.50
2024-04-13T15:15:49.110Z,26.40
2024-04-13T15:18:16.622Z,26.60
2024-04-13T15:20:43.511Z,26.40
2024-04-13T15:23:10.240Z,26.20
2024-04-13T15:25:37.656Z,26.40
2024-04-13T15:28:04.653Z,26.70
2024-04-13T15:30:31.369Z,26.70
2024-04-13T15:32:58.170Z,26.80
2024-04-13T15:35:24.914Z,26.80
2024-04-13T15:37:52.406Z,26.50
2024-04-13T15:40:19.877Z,26.70
2024-04-13T15:42:46.659Z,26.40
2024-04-13T15:45:13.384Z,26.00
2024-04-13T15:47:40.168Z,25.70
2024-04-13T15:50:07.523Z,25.60
2024-04-13T15:52:34.235Z,25.40
2024-04-13T15:55:00.978Z,25.40
2024-04-13T15:57:27.749Z,25.30
2024-04-13T16:00:00.022Z,25.10
2024-04-13T16:02:27.300Z,25.30
2024-04-13T16:04:55.660Z,25.40
2024-04-13T16:07:22.984Z,25.20
2024-04-13T16:09:51.989Z,25.10
2024-04-13T16:12:20.180Z,24.90
2024-04-13T16:14:46.913Z,24.60
2024-04-13T16:17:13.687Z,24.60
2024-04-13T16:19:40.454Z,24.50
2024-04-13T16:22:07.160Z,24.50
2024-04-13T16:24:34.911Z,24.20
2024-04-13T16:27:02.693Z,24.30
2024-04-13T16:29:29.429Z,24.30
2024-04-13T16:31:56.213Z,24.10
2024-04-13T16:34:23.503Z,24.10
2024-04-13T16:36:50.339Z,24.10
2024-04-13T16:39:17.930Z,24.00
2024-04-13T16:41:44.650Z,24.00
2024-04-13T16:44:13.174Z,24.00
2024-04-13T16:46:39.969Z,23.90
2024-04-13T16:49:06.772Z,23.90
2024-04-13T16:51:41.423Z,23.90
2024-04-13T16:54:09.674Z,23.80
2024-04-13T16:56:37.069Z,23.70
2024-04-13T16:59:04.652Z,23.70
2024-04-13T17:01:31.973Z,23.60
2024-04-13T17:03:58.871Z,23.60
2024-04-13T17:06:25.675Z,23.60
2024-04-13T17:08:52.422Z,23.50
2024-04-13T17:11:20.262Z,23.40
2024-04-13T17:13:46.990Z,23.40
2024-04-13T17:16:13.734Z,23.30
2024-04-13T17:18:40.571Z,23.40
2024-04-13T17:21:07.358Z,23.30
2024-04-13T17:23:39.282Z,23.30
2024-04-13T17:26:05.978Z,23.20
2024-04-13T17:28:32.781Z,23.10
2024-04-13T17:30:59.539Z,23.00
2024-04-13T17:33:26.336Z,22.90
2024-04-13T17:35:53.114Z,22.70
2024-04-13T17:38:19.919Z,22.60
2024-04-13T17:40:46.634Z,22.50
2024-04-13T17:43:13.343Z,22.40
2024-04-13T17:45:40.784Z,22.30
2024-04-13T17:48:07.917Z,22.20
2024-04-13T17:50:34.670Z,22.10
2024-04-13T17:53:01.577Z,22.00
2024-04-13T17:55:28.282Z,21.80
2024-04-13T17:57:55.085Z,21.70
2024-04-13T18:00:21.848Z,21.70
2024-04-13T18:02:48.623Z,21.60
2024-04-13T18:05:15.419Z,21.50
2024-04-13T18:07:43.487Z,21.40
2024-04-13T18:10:10.311Z,21.30
2024-04-13T18:12:37.095Z,21.20
2024-04-13T18:15:04.002Z,21.20
2024-04-13T18:17:30.930Z,21.10
2024-04-13T18:19:57.735Z,21.00
2024-04-13T18:22:25.512Z,20.90
2024-04-13T18:24:54.010Z,20.90
2024-04-13T18:27:20.808Z,20.80
2024-04-13T18:29:47.556Z,20.70
2024-04-13T18:32:14.376Z,20.70
2024-04-13T18:34:41.237Z,20.60
2024-04-13T18:37:09.861Z,20.50
2024-04-13T18:39:36.711Z,20.40
2024-04-13T18:42:03.687Z,20.30
2024-04-13T18:44:30.443Z,20.30
2024-04-13T18:46:57.177Z,20.20
2024-04-13T18:49:24.576Z,20.10
2024-04-13T18:51:51.405Z,20.00
2024-04-13T18:54:20.366Z,19.90
2024-04-13T18:56:47.161Z,19.90
2024-04-13T18:59:13.888Z,19.80
2024-04-13T19:01:40.731Z,19.90
2024-04-13T19:04:09.775Z,19.80
2024-04-13T19:06:36.629Z,19.70
2024-04-13T19:09:04.208Z,19.50
2024-04-13T19:11:32.615Z,19.50
2024-04-13T19:13:59.331Z,19.40
2024-04-13T19:16:26.253Z,19.20
2024-04-13T19:18:53.234Z,19.10
2024-04-13T19:21:20.157Z,19.10
2024-04-13T19:23:47.292Z,19.00
2024-04-13T19:26:15.275Z,18.90
2024-04-13T19:28:43.199Z,19.00
2024-04-13T19:31:10.062Z,19.00
2024-04-13T19:33:37.476Z,19.00
2024-04-13T19:36:04.526Z,19.00
2024-04-13T19:38:31.239Z,18.90
2024-04-13T19:40:57.958Z,18.80
2024-04-13T19:43:24.938Z,18.70
2024-04-13T19:45:51.808Z,18.70
2024-04-13T19:48:18.713Z,18.60
2024-04-13T19:50:45.486Z,18.60
2024-04-13T19:53:12.266Z,18.50
2024-04-13T19:55:39.181Z,18.30
2024-04-13T19:58:06.128Z,18.40
2024-04-13T20:00:35.843Z,18.30
2024-04-13T20:03:02.954Z,18.30
2024-04-13T20:05:36.452Z,18.20
2024-04-13T20:08:03.999Z,18.10
2024-04-13T20:10:31.124Z,18.10
2024-04-13T20:12:58.309Z,18.10
2024-04-13T20:15:43.771Z,18.00
2024-04-13T20:18:29.345Z,17.90
2024-04-13T20:20:56.553Z,18.00
2024-04-13T20:23:23.938Z,17.90
2024-04-13T20:25:50.765Z,17.90
2024-04-13T20:28:17.623Z,17.80
2024-04-13T20:30:45.296Z,17.80
2024-04-13T20:33:12.255Z,17.70
2024-04-13T20:35:39.495Z,17.60
2024-04-13T20:38:07.262Z,17.60
2024-04-13T20:40:33.987Z,17.60
2024-04-13T20:43:01.517Z,17.70
2024-04-13T20:45:28.358Z,17.70
2024-04-13T20:47:55.227Z,17.70
2024-04-13T20:50:22.038Z,17.80
2024-04-13T20:52:56.848Z,17.70
2024-04-13T20:55:28.229Z,17.70
2024-04-13T20:57:55.761Z,17.60
2024-04-13T21:00:22.946Z,17.50
2024-04-13T21:02:49.746Z,17.50
2024-04-13T21:05:16.607Z,17.60
2024-04-13T21:07:43.605Z,17.50
2024-04-13T21:10:10.459Z,17.40
2024-04-13T21:12:37.171Z,17.40
2024-04-13T21:15:04.180Z,17.30
2024-04-13T21:17:30.957Z,17.20
2024-04-13T21:19:57.686Z,17.20
2024-04-13T21:22:25.961Z,17.20
2024-04-13T21:24:56.753Z,17.20
2024-04-13T21:27:27.097Z,17.20
2024-04-13T21:29:53.871Z,17.20
2024-04-13T21:32:20.996Z,17.20
2024-04-13T21:34:49.908Z,17.00
2024-04-13T21:37:17.661Z,17.10
2024-04-13T21:39:44.438Z,16.70
2024-04-13T21:42:11.183Z,16.80
2024-04-13T21:44:37.850Z,16.80
2024-04-13T21:47:04.778Z,16.80
2024-04-13T21:49:31.488Z,16.60
2024-04-13T21:52:00.443Z,16.70
2024-04-13T21:54:27.568Z,16.70
2024-04-13T21:56:54.391Z,16.70
2024-04-13T21:59:21.104Z,16.70
2024-04-13T22:01:47.973Z,16.60
2024-04-13T22:04:14.773Z,16.60
2024-04-13T22:06:41.755Z,16.50
2024-04-13T22:09:08.798Z,16.40
2024-04-13T22:11:36.221Z,16.50
2024-04-13T22:14:03.025Z,16.30
2024-04-13T22:16:29.924Z,16.30
2024-04-13T22:18:59.732Z,16.40
2024-04-13T22:21:27.134Z,16.40
2024-04-13T22:23:53.876Z,16.40
2024-04-13T22:26:20.616Z,16.30
2024-04-13T22:28:47.335Z,16.30
2024-04-13T22:31:14.185Z,16.20
2024-04-13T22:33:40.988Z,16.10
2024-04-13T22:36:08.198Z,16.10
2024-04-13T22:38:34.965Z,16.00
2024-04-13T22:41:01.748Z,16.20
2024-04-13T22:43:28.751Z,16.10
2024-04-13T22:45:55.543Z,16.20
2024-04-13T22:48:22.723Z,16.10
2024-04-13T22:50:49.510Z,16.10
2024-04-13T22:53:16.261Z,15.90
2024-04-13T22:55:43.286Z,15.90
2024-04-13T22:58:10.106Z,15.80
2024-04-13T23:00:39.990Z,15.90
2024-04-13T23:03:06.978Z,15.80
2024-04-13T23:05:33.669Z,15.70
2024-04-13T23:08:00.375Z,15.70
2024-04-13T23:10:27.098Z,15.90
2024-04-13T23:12:53.993Z,15.80
2024-04-13T23:15:20.894Z,15.60
2024-04-13T23:17:47.695Z,15.70
2024-04-13T23:20:14.673Z,15.70
2024-04-13T23:22:41.399Z,15.60
2024-04-13T23:25:08.154Z,15.70
2024-04-13T23:27:34.942Z,15.80
2024-04-13T23:30:01.763Z,15.70
2024-04-13T23:32:28.481Z,15.60
2024-04-13T23:34:55.882Z,15.60
2024-04-13T23:37:22.603Z,15.60
2024-04-13T23:39:49.316Z,15.50
2024-04-13T23:42:16.040Z,15.40
2024-04-13T23:44:42.766Z,15.40
2024-04-13T23:47:09.460Z,15.30
2024-04-13T23:49:36.161Z,15.20
2024-04-13T23:52:03.032Z,15.30
2024-04-13T23:54:29.739Z,15.40
2024-04-13T23:56:56.721Z,15.30
2024-04-13T23:59:23.601Z,15.20
